Time;durP1;ratioP1;P1;durP2;ratioP2;P2;SDS_P1;SDS_P2;PMS_P1;PMS_P2;Temp;Humidity;BMP_temperature;BMP_pressure;BME280_temperature;BME280_humidity;BME280_pressure;Samples;Min_cycle;Max_cycle;Signal;HPM_P1;HPM_P2
2021/10/31 00:01:02;;;;;;;12.70;10.67;;;11.80;1.00;;;;;;5074405;28;20204;-62
2021/10/31 00:03:29;;;;;;;12.10;10.83;;;11.80;78.20;;;;;;5073896;28;20237;-61
2021/10/31 00:05:56;;;;;;;11.60;10.20;;;11.80;99.90;;;;;;5074113;28;20206;-62
2021/10/31 00:08:22;;;;;;;12.17;10.03;;;11.80;99.90;;;;;;5074422;28;20586;-61
2021/10/31 00:10:50;;;;;;;14.07;11.37;;;11.80;99.90;;;;;;5073485;28;20203;-62
2021/10/31 00:13:17;;;;;;;16.10;11.10;;;11.80;99.90;;;;;;5074004;28;20711;-61
2021/10/31 00:15:44;;;;;;;14.20;10.83;;;11.80;99.90;;;;;;5073464;28;20209;-62
2021/10/31 00:18:11;;;;;;;13.40;10.73;;;11.70;35.60;;;;;;5074209;28;20264;-61
2021/10/31 00:20:38;;;;;;;12.77;10.37;;;11.70;1.00;;;;;;5074034;28;20263;-61
2021/10/31 00:23:05;;;;;;;12.27;10.43;;;11.70;1.00;;;;;;5073794;28;20708;-61
2021/10/31 00:25:31;;;;;;;13.40;10.27;;;11.70;99.90;;;;;;5073643;28;20263;-61
2021/10/31 00:27:59;;;;;;;16.07;9.73;;;11.70;99.90;;;;;;5073794;28;20623;-61
2021/10/31 00:30:26;;;;;;;11.20;9.97;;;11.60;99.90;;;;;;5073550;28;20278;-61
2021/10/31 00:32:53;;;;;;;13.87;10.57;;;11.60;99.90;;;;;;5073749;28;20224;-61
2021/10/31 00:35:19;;;;;;;13.20;10.40;;;11.50;99.90;;;;;;5073491;28;20216;-61
2021/10/31 00:37:46;;;;;;;15.37;10.03;;;11.50;1.00;;;;;;5073711;28;20258;-61
2021/10/31 00:40:13;;;;;;;14.17;10.77;;;11.40;99.90;;;;;;5073636;28;20255;-61
2021/10/31 00:42:41;;;;;;;13.73;11.03;;;11.40;1.00;;;;;;5073454;28;20232;-61
2021/10/31 00:45:10;;;;;;;17.23;12.10;;;11.30;99.90;;;;;;5072946;28;20216;-60
2021/10/31 00:47:36;;;;;;;14.67;11.50;;;11.30;1.00;;;;;;5073600;28;20220;-61
2021/10/31 00:50:04;;;;;;;17.23;12.50;;;11.20;99.90;;;;;;5073488;28;20266;-60
2021/10/31 00:52:32;;;;;;;15.17;11.40;;;11.20;99.90;;;;;;5073332;28;20225;-60
2021/10/31 00:54:59;;;;;;;14.87;11.87;;;11.20;1.00;;;;;;5072758;28;20255;-61
2021/10/31 00:57:26;;;;;;;17.23;12.90;;;11.20;1.00;;;;;;5073077;28;20212;-61
2021/10/31 00:59:53;;;;;;;17.53;12.73;;;11.10;1.00;;;;;;5073296;28;20221;-61
2021/10/31 01:02:21;;;;;;;16.87;12.40;;;11.10;31.40;;;;;;5073257;28;20251;-61
2021/10/31 01:04:52;;;;;;;17.73;13.80;;;11.10;43.60;;;;;;5072717;28;20237;-61
2021/10/31 01:07:46;;;;;;;18.40;14.10;;;11.10;37.40;;;;;;5072999;28;20201;-61
2021/10/31 01:10:21;;;;;;;20.63;13.70;;;11.10;1.00;;;;;;5073162;28;20307;-61
2021/10/31 01:13:03;;;;;;;20.70;15.23;;;11.10;1.00;;;;;;5073058;28;20231;-61
2021/10/31 01:15:40;;;;;;;21.13;14.63;;;11.00;1.00;;;;;;5072666;28;20584;-61
2021/10/31 01:18:37;;;;;;;24.73;14.90;;;11.00;33.70;;;;;;5072826;28;20626;-60
2021/10/31 01:21:18;;;;;;;23.40;15.77;;;10.90;99.90;;;;;;5072808;28;20273;-59
2021/10/31 01:24:00;;;;;;;21.33;14.93;;;10.90;99.90;;;;;;5072288;28;20209;-60
2021/10/31 01:26:37;;;;;;;23.10;16.40;;;10.80;1.00;;;;;;5072446;28;20269;-61
2021/10/31 01:29:22;;;;;;;25.43;16.03;;;10.80;1.00;;;;;;5072544;28;20668;-61
2021/10/31 01:32:00;;;;;;;22.77;15.43;;;10.80;1.00;;;;;;5072681;28;20599;-61
2021/10/31 01:34:42;;;;;;;24.43;17.23;;;10.80;1.00;;;;;;5072494;28;20295;-60
2021/10/31 01:37:18;;;;;;;21.40;15.43;;;10.80;6.50;;;;;;5072047;28;20300;-61
2021/10/31 01:39:49;;;;;;;27.03;16.10;;;10.80;99.90;;;;;;5072504;28;20279;-61
2021/10/31 01:42:23;;;;;;;27.30;16.93;;;10.80;99.90;;;;;;5072503;28;20229;-61
2021/10/31 01:45:01;;;;;;;26.00;17.23;;;10.80;99.90;;;;;;5072351;28;20197;-61
2021/10/31 01:47:39;;;;;;;25.23;16.93;;;10.80;1.00;;;;;;5071815;28;20215;-61
2021/10/31 01:50:13;;;;;;;22.33;16.60;;;10.80;1.00;;;;;;5072195;28;20196;-61
2021/10/31 01:52:42;;;;;;;25.07;16.33;;;10.70;1.00;;;;;;5072285;28;20251;-61
2021/10/31 01:55:14;;;;;;;28.20;16.67;;;10.70;73.10;;;;;;5072020;28;20200;-61
2021/10/31 01:57:46;;;;;;;24.53;16.10;;;10.70;99.90;;;;;;5072229;28;20205;-61
2021/10/31 02:00:15;;;;;;;28.87;16.83;;;10.70;99.90;;;;;;5071909;28;20234;-61
2021/10/31 02:02:45;;;;;;;26.87;16.27;;;10.70;99.90;;;;;;5071819;28;20229;-61
2021/10/31 02:05:16;;;;;;;29.53;16.33;;;10.70;99.90;;;;;;5071616;28;20262;-61
2021/10/31 02:07:50;;;;;;;22.40;15.70;;;10.70;99.90;;;;;;5072169;28;20208;-61
2021/10/31 02:10:17;;;;;;;23.23;14.93;;;10.70;99.90;;;;;;5072031;28;20205;-61
2021/10/31 02:12:47;;;;;;;25.97;14.60;;;10.70;99.90;;;;;;5071824;28;20290;-61
2021/10/31 02:15:15;;;;;;;26.70;14.27;;;10.70;99.90;;;;;;5071647;28;20205;-61
2021/10/31 02:17:43;;;;;;;22.33;13.83;;;10.70;99.90;;;;;;5071985;28;20643;-61
2021/10/31 02:20:12;;;;;;;20.30;12.83;;;10.70;99.90;;;;;;5071871;28;20228;-61
2021/10/31 02:22:42;;;;;;;22.17;12.90;;;10.60;99.90;;;;;;5071864;28;20225;-61
2021/10/31 02:25:11;;;;;;;23.53;12.53;;;10.60;99.90;;;;;;5071543;28;20212;-61
2021/10/31 02:27:42;;;;;;;23.17;12.70;;;10.60;99.90;;;;;;5072057;28;20205;-61
2021/10/31 02:30:10;;;;;;;21.80;12.13;;;10.50;99.90;;;;;;5071929;28;20629;-61
2021/10/31 02:32:37;;;;;;;21.43;12.63;;;10.50;99.90;;;;;;5071780;28;20646;-61
2021/10/31 02:35:05;;;;;;;24.17;12.77;;;10.40;99.90;;;;;;5075509;28;20552;-61
2021/10/31 02:37:32;;;;;;;21.03;11.60;;;10.40;99.90;;;;;;5075722;28;20288;-61
2021/10/31 02:39:59;;;;;;;20.07;11.63;;;10.40;99.90;;;;;;5076158;28;20285;-61
2021/10/31 02:42:27;;;;;;;20.03;11.43;;;10.30;99.90;;;;;;5075889;28;20357;-61
2021/10/31 02:44:53;;;;;;;21.33;12.63;;;10.30;99.90;;;;;;5075465;28;20212;-61
2021/10/31 02:47:26;;;;;;;19.07;12.17;;;10.30;99.90;;;;;;5075891;28;20269;-61
2021/10/31 02:49:55;;;;;;;22.17;12.17;;;10.30;99.90;;;;;;5075718;28;20211;-61
2021/10/31 02:52:29;;;;;;;19.90;12.17;;;10.30;99.90;;;;;;5075846;28;20228;-61
2021/10/31 02:55:03;;;;;;;21.03;11.97;;;10.30;99.90;;;;;;5075305;28;20261;-61
2021/10/31 02:57:40;;;;;;;21.60;12.07;;;10.30;99.90;;;;;;5075937;28;20234;-61
2021/10/31 03:00:08;;;;;;;21.57;12.77;;;10.30;99.90;;;;;;5075603;28;20228;-61
2021/10/31 03:02:35;;;;;;;23.63;12.50;;;10.20;99.90;;;;;;5075489;28;20220;-59
2021/10/31 03:05:02;;;;;;;21.27;11.70;;;10.20;99.90;;;;;;5075363;28;20589;-62
2021/10/31 03:07:29;;;;;;;22.90;12.23;;;10.20;99.90;;;;;;5075400;28;20207;-61
2021/10/31 03:09:56;;;;;;;18.47;11.33;;;10.20;99.90;;;;;;5075452;28;20602;-61
2021/10/31 03:12:22;;;;;;;23.67;10.73;;;10.20;99.90;;;;;;5075199;28;20228;-61
2021/10/31 03:14:50;;;;;;;19.40;11.10;;;10.20;99.90;;;;;;5075025;28;20216;-61
2021/10/31 03:17:17;;;;;;;20.17;11.03;;;10.20;99.90;;;;;;5075410;28;20262;-61
2021/10/31 03:19:44;;;;;;;20.97;10.73;;;10.20;99.90;;;;;;5075258;28;20224;-61
2021/10/31 03:22:10;;;;;;;21.43;11.20;;;10.20;99.90;;;;;;5075153;28;20274;-61
2021/10/31 03:24:37;;;;;;;25.03;11.30;;;10.20;99.90;;;;;;5074679;28;20673;-61
2021/10/31 03:27:05;;;;;;;17.83;10.60;;;10.20;99.90;;;;;;5074892;28;20617;-61
2021/10/31 03:29:32;;;;;;;21.17;11.30;;;10.20;99.90;;;;;;5074666;28;20201;-61
2021/10/31 03:32:00;;;;;;;21.00;11.03;;;10.10;99.90;;;;;;5075008;28;20281;-61
2021/10/31 03:34:26;;;;;;;20.03;10.97;;;10.10;99.90;;;;;;5074824;28;20201;-61
2021/10/31 03:36:53;;;;;;;19.43;10.30;;;10.10;99.90;;;;;;5074622;28;20212;-61
2021/10/31 03:39:20;;;;;;;16.80;9.87;;;10.10;99.90;;;;;;5074679;28;20228;-61
2021/10/31 03:41:47;;;;;;;22.10;11.27;;;10.10;99.90;;;;;;5074666;28;20229;-61
2021/10/31 03:44:15;;;;;;;18.13;10.10;;;10.10;99.90;;;;;;5074362;28;20208;-61
2021/10/31 03:46:42;;;;;;;17.37;10.20;;;10.10;99.90;;;;;;5073506;28;20240;-61
2021/10/31 03:49:11;;;;;;;22.40;11.27;;;10.10;99.90;;;;;;5074637;28;20201;-61
2021/10/31 03:51:38;;;;;;;23.77;11.20;;;10.10;99.90;;;;;;5074445;28;20232;-61
2021/10/31 03:54:04;;;;;;;20.83;11.03;;;10.20;99.90;;;;;;5074556;28;20625;-61
2021/10/31 03:56:31;;;;;;;19.80;11.23;;;10.20;99.90;;;;;;5074463;28;20208;-61
2021/10/31 03:58:58;;;;;;;20.93;10.67;;;10.20;99.90;;;;;;5074793;28;20215;-61
2021/10/31 04:01:25;;;;;;;17.33;9.80;;;10.20;99.90;;;;;;5074318;28;20227;-61
2021/10/31 04:03:51;;;;;;;16.33;9.87;;;10.20;99.90;;;;;;5074153;28;20270;-61
2021/10/31 04:06:19;;;;;;;16.17;9.57;;;10.20;99.90;;;;;;5074245;28;20212;-61
2021/10/31 04:08:46;;;;;;;18.57;9.27;;;10.20;99.90;;;;;;5074106;28;20584;-61
2021/10/31 04:11:12;;;;;;;16.30;8.80;;;10.20;99.90;;;;;;5073850;28;20879;-61
2021/10/31 04:13:39;;;;;;;15.93;9.00;;;10.20;99.90;;;;;;5074264;28;20214;-61
2021/10/31 04:16:06;;;;;;;15.17;9.17;;;10.20;99.90;;;;;;5073881;28;20205;-61
2021/10/31 04:18:32;;;;;;;13.87;8.50;;;10.20;99.90;;;;;;5074155;28;20268;-61
2021/10/31 04:20:59;;;;;;;13.20;8.97;;;10.20;99.90;;;;;;5073819;28;20251;-61
2021/10/31 04:23:28;;;;;;;17.87;9.23;;;10.20;99.90;;;;;;5073931;28;20233;-61
2021/10/31 04:25:55;;;;;;;16.27;8.20;;;10.20;99.90;;;;;;5073191;28;20239;-61
2021/10/31 04:28:23;;;;;;;17.43;8.60;;;10.20;99.90;;;;;;5074156;28;20259;-61
2021/10/31 04:30:50;;;;;;;17.60;9.03;;;10.30;99.90;;;;;;5073861;28;20197;-61
2021/10/31 04:33:17;;;;;;;14.57;8.33;;;10.20;99.90;;;;;;5073893;28;20228;-61
2021/10/31 04:35:43;;;;;;;11.67;8.30;;;10.30;99.90;;;;;;5073441;28;20263;-61
2021/10/31 04:38:13;;;;;;;15.53;8.23;;;10.20;99.90;;;;;;5073651;28;20215;-62
2021/10/31 04:40:41;;;;;;;13.83;8.07;;;10.20;99.90;;;;;;5073343;28;20560;-62
2021/10/31 04:43:11;;;;;;;13.77;8.23;;;10.20;99.90;;;;;;5073614;28;20227;-61
2021/10/31 04:45:39;;;;;;;12.77;8.20;;;10.30;99.90;;;;;;5073215;28;20209;-61
2021/10/31 04:48:07;;;;;;;15.70;8.20;;;10.30;99.90;;;;;;5073217;28;20570;-61
2021/10/31 04:50:34;;;;;;;11.93;7.30;;;10.30;48.10;;;;;;5073570;28;20201;-62
2021/10/31 04:53:01;;;;;;;13.57;7.63;;;10.30;1.00;;;;;;5073040;28;20229;-61
2021/10/31 04:55:28;;;;;;;10.47;7.37;;;10.30;1.00;;;;;;5072949;28;20212;-61
2021/10/31 04:57:57;;;;;;;9.97;6.60;;;10.30;1.00;;;;;;5073081;28;20204;-61
2021/10/31 05:00:24;;;;;;;13.10;7.20;;;10.30;99.90;;;;;;5073062;28;20228;-61
2021/10/31 05:02:52;;;;;;;11.97;6.80;;;10.20;99.90;;;;;;5073079;28;20720;-61
2021/10/31 05:05:19;;;;;;;11.40;7.30;;;10.20;99.90;;;;;;5072603;28;20213;-61
2021/10/31 05:07:46;;;;;;;12.10;7.17;;;10.20;99.90;;;;;;5073353;28;20568;-61
2021/10/31 05:10:13;;;;;;;11.33;7.67;;;10.20;99.90;;;;;;5073224;28;20712;-61
2021/10/31 05:12:40;;;;;;;10.97;7.20;;;10.10;99.90;;;;;;5072975;28;20798;-61
2021/10/31 05:15:09;;;;;;;12.07;6.60;;;10.20;99.90;;;;;;5072717;28;20291;-61
2021/10/31 05:17:36;;;;;;;9.37;6.73;;;10.20;33.30;;;;;;5072910;28;20579;-61
2021/10/31 05:20:03;;;;;;;14.73;6.70;;;10.20;1.00;;;;;;5072863;28;20236;-61
2021/10/31 05:22:30;;;;;;;12.23;6.77;;;10.20;1.00;;;;;;5072767;28;20224;-59
2021/10/31 05:24:57;;;;;;;11.97;7.37;;;10.20;1.00;;;;;;5072540;28;20234;-61
2021/10/31 05:27:24;;;;;;;12.47;7.17;;;10.20;99.90;;;;;;5072806;28;20205;-61
2021/10/31 05:29:50;;;;;;;10.43;7.37;;;10.10;99.90;;;;;;5072619;28;20262;-61
2021/10/31 05:32:18;;;;;;;12.40;7.00;;;10.10;99.90;;;;;;5072508;28;20278;-61
2021/10/31 05:34:45;;;;;;;10.03;7.40;;;10.10;99.90;;;;;;5071900;28;20212;-62
2021/10/31 05:37:13;;;;;;;11.73;7.00;;;10.10;99.90;;;;;;5072593;28;20205;-62
2021/10/31 05:39:39;;;;;;;11.53;7.70;;;10.10;99.90;;;;;;5072199;28;20673;-61
2021/10/31 05:42:06;;;;;;;12.77;7.47;;;10.10;99.90;;;;;;5072413;28;20225;-61
2021/10/31 05:44:33;;;;;;;9.53;7.27;;;10.10;99.90;;;;;;5072070;28;20208;-62
2021/10/31 05:47:00;;;;;;;14.23;7.97;;;10.10;99.90;;;;;;5072274;28;20262;-61
2021/10/31 05:49:28;;;;;;;17.13;8.47;;;10.10;99.90;;;;;;5072417;28;20209;-61
2021/10/31 05:51:55;;;;;;;11.97;8.20;;;10.10;99.90;;;;;;5072279;28;20225;-61
2021/10/31 05:54:22;;;;;;;11.63;8.30;;;10.10;1.00;;;;;;5072317;28;20696;-61
2021/10/31 05:56:48;;;;;;;13.30;8.23;;;10.20;1.00;;;;;;5071775;28;20746;-61
2021/10/31 05:59:15;;;;;;;12.40;8.20;;;10.10;1.00;;;;;;5072123;28;20212;-61
2021/10/31 06:01:41;;;;;;;11.93;7.70;;;10.10;1.00;;;;;;5071780;28;20258;-61
2021/10/31 06:04:08;;;;;;;13.10;8.43;;;10.20;99.90;;;;;;5072024;28;20246;-62
2021/10/31 06:06:36;;;;;;;10.30;7.97;;;10.20;99.90;;;;;;5071834;28;20204;-61
2021/10/31 06:09:03;;;;;;;12.10;8.23;;;10.20;99.90;;;;;;5071427;28;20209;-61
2021/10/31 06:11:30;;;;;;;12.53;8.93;;;10.20;66.70;;;;;;5072053;28;20592;-61
2021/10/31 06:13:57;;;;;;;12.37;8.37;;;10.20;41.70;;;;;;5071901;28;20216;-61
2021/10/31 06:16:26;;;;;;;18.57;8.70;;;10.20;1.00;;;;;;5071460;28;20717;-61
2021/10/31 06:18:53;;;;;;;10.53;7.80;;;10.20;1.00;;;;;;5072052;28;20258;-61
2021/10/31 06:21:19;;;;;;;11.93;8.30;;;10.20;99.90;;;;;;5071711;28;20630;-61
2021/10/31 06:23:47;;;;;;;12.40;8.53;;;10.20;1.00;;;;;;5072106;28;20204;-61
2021/10/31 06:26:14;;;;;;;11.37;8.03;;;10.20;1.00;;;;;;5071545;28;20216;-60
2021/10/31 06:28:40;;;;;;;9.90;7.73;;;10.20;99.90;;;;;;5072039;28;20231;-61
2021/10/31 06:31:07;;;;;;;14.73;8.30;;;10.20;99.90;;;;;;5071933;28;20273;-61
2021/10/31 06:33:34;;;;;;;12.63;8.63;;;10.20;99.90;;;;;;5060662;28;20221;-63
2021/10/31 06:36:01;;;;;;;11.20;8.53;;;10.20;99.90;;;;;;5071038;28;20208;-61
2021/10/31 06:38:28;;;;;;;11.70;8.70;;;10.20;99.90;;;;;;5071024;28;20301;-64
2021/10/31 06:40:56;;;;;;;12.93;9.47;;;10.20;58.60;;;;;;5071349;28;20627;-60
2021/10/31 06:43:23;;;;;;;13.97;9.27;;;10.20;42.40;;;;;;5070753;28;20709;-61
2021/10/31 06:45:49;;;;;;;12.60;9.57;;;10.20;99.90;;;;;;5070928;28;20266;-61
2021/10/31 06:48:16;;;;;;;12.43;9.57;;;10.20;99.90;;;;;;5068015;28;20228;-61
2021/10/31 06:50:43;;;;;;;11.93;9.63;;;10.20;99.90;;;;;;5070984;28;20208;-63
2021/10/31 06:53:09;;;;;;;13.67;9.10;;;10.20;99.90;;;;;;5070701;28;20225;-61
2021/10/31 06:55:37;;;;;;;11.47;9.37;;;10.20;99.90;;;;;;5070751;28;20213;-61
2021/10/31 06:58:05;;;;;;;12.87;8.73;;;10.30;1.00;;;;;;5070938;28;20209;-61
2021/10/31 07:00:31;;;;;;;11.40;8.97;;;10.40;66.10;;;;;;5071045;28;20221;-61
2021/10/31 07:02:58;;;;;;;12.07;8.23;;;10.60;99.90;;;;;;5070876;28;20228;-61
2021/10/31 07:05:24;;;;;;;9.17;7.40;;;10.60;99.90;;;;;;5070873;28;20205;-61
2021/10/31 07:07:51;;;;;;;9.67;7.83;;;10.70;99.90;;;;;;5071054;28;20215;-61
2021/10/31 07:10:18;;;;;;;9.83;8.17;;;10.70;99.90;;;;;;5070716;28;20201;-61
2021/10/31 07:12:44;;;;;;;11.30;7.47;;;10.70;99.90;;;;;;5070844;28;20236;-62
2021/10/31 07:15:12;;;;;;;8.63;6.53;;;10.70;99.90;;;;;;5070412;28;20738;-61
2021/10/31 07:17:39;;;;;;;8.13;6.60;;;10.80;1.00;;;;;;5070958;28;20693;-62
2021/10/31 07:20:07;;;;;;;8.97;7.07;;;10.80;1.00;;;;;;5072832;28;20676;-62
2021/10/31 07:22:34;;;;;;;9.03;7.07;;;10.80;99.90;;;;;;5074763;28;20274;-62
2021/10/31 07:25:03;;;;;;;8.87;6.10;;;10.80;99.90;;;;;;5073794;28;20220;-61
2021/10/31 07:27:30;;;;;;;7.37;6.27;;;10.80;1.00;;;;;;5074496;28;20209;-62
2021/10/31 07:29:57;;;;;;;8.37;5.77;;;10.90;99.90;;;;;;5074180;28;20201;-62
2021/10/31 07:32:25;;;;;;;6.33;5.30;;;10.90;99.90;;;;;;5074385;28;20271;-61
2021/10/31 07:34:52;;;;;;;5.90;4.80;;;10.90;99.90;;;;;;5073805;28;20270;-61
2021/10/31 07:37:18;;;;;;;7.83;4.80;;;10.90;99.90;;;;;;5073569;28;20254;-61
2021/10/31 07:39:45;;;;;;;5.43;4.00;;;11.00;91.90;;;;;;5074409;28;20263;-61
2021/10/31 07:42:13;;;;;;;6.87;4.23;;;11.00;21.50;;;;;;5073964;28;20236;-60
2021/10/31 07:44:40;;;;;;;8.70;4.33;;;11.00;1.00;;;;;;5073586;28;20205;-59
2021/10/31 07:47:06;;;;;;;4.40;3.83;;;11.10;1.00;;;;;;5074511;28;20209;-60
2021/10/31 07:49:34;;;;;;;4.07;3.67;;;11.10;99.90;;;;;;5074280;28;20563;-60
2021/10/31 07:52:01;;;;;;;4.60;3.57;;;11.10;99.90;;;;;;5073898;28;20217;-60
2021/10/31 07:54:28;;;;;;;4.70;3.30;;;11.10;99.90;;;;;;5074089;28;20298;-61
2021/10/31 07:56:58;;;;;;;3.73;3.37;;;11.10;99.90;;;;;;5074031;28;20212;-59
2021/10/31 07:59:26;;;;;;;3.87;3.27;;;11.20;99.90;;;;;;5070135;28;20204;-60
2021/10/31 08:01:53;;;;;;;6.07;3.00;;;11.20;99.90;;;;;;5073857;28;20235;-60
2021/10/31 08:04:22;;;;;;;5.80;3.53;;;11.20;99.90;;;;;;5073562;28;20246;-58
2021/10/31 08:06:50;;;;;;;4.03;3.17;;;11.10;99.90;;;;;;5073016;28;20217;-59
2021/10/31 08:09:16;;;;;;;4.93;3.10;;;11.10;99.90;;;;;;5073667;28;20743;-60
2021/10/31 08:11:43;;;;;;;3.80;3.33;;;11.20;99.90;;;;;;5073668;28;20636;-60
2021/10/31 08:14:10;;;;;;;4.93;3.17;;;11.30;99.90;;;;;;5073457;28;20231;-60
2021/10/31 08:16:38;;;;;;;3.07;2.77;;;11.30;99.90;;;;;;5072789;28;20244;-60
2021/10/31 08:19:04;;;;;;;3.30;3.00;;;11.40;1.00;;;;;;5073661;28;20201;-60
2021/10/31 08:21:31;;;;;;;3.03;2.73;;;11.40;1.00;;;;;;5073885;28;20221;-59
2021/10/31 08:23:59;;;;;;;5.47;2.90;;;11.50;1.00;;;;;;5073510;28;20221;-61
2021/10/31 08:26:26;;;;;;;3.60;2.70;;;11.60;1.00;;;;;;5073259;28;20736;-62
2021/10/31 08:28:53;;;;;;;2.50;2.23;;;11.60;1.00;;;;;;5073439;28;20213;-62
2021/10/31 08:31:25;;;;;;;3.20;2.90;;;11.80;1.00;;;;;;5072846;28;20205;-62
2021/10/31 08:33:55;;;;;;;2.40;2.20;;;11.90;99.90;;;;;;5073045;28;20212;-62
2021/10/31 08:36:22;;;;;;;2.20;2.00;;;12.00;99.90;;;;;;5073024;28;20244;-62
2021/10/31 08:38:49;;;;;;;3.17;2.53;;;12.10;99.90;;;;;;5071222;28;20735;-61
2021/10/31 08:41:19;;;;;;;2.17;1.87;;;12.20;99.90;;;;;;5072993;28;20227;-61
2021/10/31 08:43:46;;;;;;;2.63;1.73;;;12.30;99.90;;;;;;5073062;28;20251;-61
2021/10/31 08:46:14;;;;;;;2.20;2.00;;;12.40;99.90;;;;;;5072716;28;20187;-61
2021/10/31 08:48:41;;;;;;;2.83;2.20;;;12.50;99.90;;;;;;5073482;28;20265;-61
2021/10/31 08:51:08;;;;;;;3.20;1.80;;;12.60;99.90;;;;;;5073454;28;20250;-61
2021/10/31 08:53:35;;;;;;;3.40;2.10;;;12.60;99.90;;;;;;5072712;28;20224;-62
2021/10/31 08:56:02;;;;;;;3.30;1.80;;;12.70;99.30;;;;;;5073173;28;20205;-61
2021/10/31 08:58:30;;;;;;;2.17;1.70;;;12.80;99.90;;;;;;5073165;28;20231;-61
2021/10/31 09:00:56;;;;;;;3.10;2.00;;;12.90;75.50;;;;;;5072721;28;20233;-61
2021/10/31 09:03:24;;;;;;;3.00;1.97;;;12.90;67.30;;;;;;5072569;28;20236;-61
2021/10/31 09:05:51;;;;;;;2.73;1.70;;;13.00;66.40;;;;;;5072824;28;20210;-61
2021/10/31 09:08:18;;;;;;;2.73;1.40;;;13.10;40.40;;;;;;5072797;28;20667;-61
2021/10/31 09:10:44;;;;;;;2.57;1.43;;;13.20;36.10;;;;;;5072619;28;20212;-61
2021/10/31 09:13:11;;;;;;;2.00;1.40;;;13.30;27.10;;;;;;5072356;28;20228;-61
2021/10/31 09:15:39;;;;;;;1.87;1.10;;;13.30;20.90;;;;;;5072077;28;20212;-62
2021/10/31 09:18:07;;;;;;;2.10;1.20;;;13.30;7.20;;;;;;5072962;28;20215;-61
2021/10/31 09:20:35;;;;;;;3.10;1.30;;;13.20;8.10;;;;;;5072672;28;20578;-59
2021/10/31 09:23:06;;;;;;;1.23;1.10;;;13.30;6.40;;;;;;5072549;28;20227;-60
2021/10/31 09:25:34;;;;;;;2.07;1.40;;;13.40;6.20;;;;;;5072427;28;20209;-59
2021/10/31 09:28:02;;;;;;;1.87;1.20;;;13.40;6.50;;;;;;5072509;28;20209;-61
2021/10/31 09:30:30;;;;;;;2.00;1.63;;;13.50;7.20;;;;;;5072649;28;20673;-60
2021/10/31 09:32:58;;;;;;;2.13;1.40;;;13.60;6.20;;;;;;5072235;28;20225;-59
2021/10/31 09:35:27;;;;;;;2.27;1.23;;;13.60;6.10;;;;;;5072209;28;20599;-60
2021/10/31 09:37:57;;;;;;;4.43;1.50;;;13.70;6.20;;;;;;5072273;28;20266;-59
2021/10/31 09:40:24;;;;;;;2.47;1.30;;;13.70;6.20;;;;;;5072065;28;20672;-59
2021/10/31 09:42:52;;;;;;;2.53;1.63;;;13.80;6.30;;;;;;5071325;28;20286;-59
2021/10/31 09:45:20;;;;;;;1.90;1.23;;;13.80;6.00;;;;;;5071837;28;20677;-60
2021/10/31 09:47:54;;;;;;;1.63;1.30;;;13.90;6.30;;;;;;5072245;28;20567;-58
2021/10/31 09:50:22;;;;;;;4.70;1.13;;;14.00;6.30;;;;;;5071950;28;20669;-59
2021/10/31 09:52:49;;;;;;;2.30;1.37;;;14.20;6.50;;;;;;5071622;28;20593;-58
2021/10/31 09:55:15;;;;;;;1.53;1.10;;;14.30;3.70;;;;;;5071391;28;20215;-59
2021/10/31 09:57:42;;;;;;;2.73;1.33;;;14.40;1.00;;;;;;5071971;28;20209;-61
2021/10/31 10:00:10;;;;;;;3.07;1.70;;;14.50;1.00;;;;;;5071695;28;20250;-61
2021/10/31 10:02:46;;;;;;;1.37;1.17;;;14.60;1.00;;;;;;5071549;28;20645;-60
2021/10/31 10:05:23;;;;;;;2.97;1.37;;;14.70;1.00;;;;;;5071259;28;20273;-60
2021/10/31 10:08:12;;;;;;;2.00;1.70;;;14.90;1.00;;;;;;5071960;28;20208;-61
2021/10/31 10:10:47;;;;;;;2.30;1.53;;;14.90;1.00;;;;;;5071834;28;20303;-60
2021/10/31 10:13:24;;;;;;;3.77;1.50;;;15.00;1.00;;;;;;5071431;28;20216;-60
2021/10/31 10:15:52;;;;;;;2.00;1.80;;;15.10;1.00;;;;;;5071125;28;20209;-60
2021/10/31 10:18:30;;;;;;;2.30;1.67;;;15.10;1.00;;;;;;5071843;28;20205;-59
2021/10/31 10:21:14;;;;;;;2.50;1.57;;;15.10;1.00;;;;;;5071627;28;20208;-59
2021/10/31 10:23:47;;;;;;;2.23;1.80;;;15.20;1.00;;;;;;5071434;28;20201;-59
2021/10/31 10:26:14;;;;;;;2.63;2.33;;;15.20;1.00;;;;;;5071124;28;20255;-58
2021/10/31 10:28:41;;;;;;;4.43;2.97;;;15.20;1.00;;;;;;5071477;28;20212;-58
2021/10/31 10:31:20;;;;;;;4.70;2.63;;;15.10;1.00;;;;;;5071546;28;20266;-56
2021/10/31 10:33:47;;;;;;;4.60;2.40;;;15.20;1.00;;;;;;5071204;28;20648;-58
2021/10/31 10:36:17;;;;;;;4.43;2.50;;;15.30;1.00;;;;;;5071164;28;20232;-58
2021/10/31 10:38:44;;;;;;;3.27;2.50;;;15.30;1.00;;;;;;5071352;28;20206;-59
2021/10/31 10:41:43;;;;;;;3.80;2.00;;;15.30;1.00;;;;;;5071664;28;20211;-59
2021/10/31 10:44:24;;;;;;;3.07;2.03;;;15.30;1.00;;;;;;5071423;28;20216;-61
2021/10/31 10:46:54;;;;;;;3.53;1.97;;;15.40;1.00;;;;;;5071091;28;20680;-60
2021/10/31 10:49:22;;;;;;;2.00;1.80;;;15.40;1.00;;;;;;5071196;28;20845;-61
2021/10/31 10:52:11;;;;;;;2.83;2.20;;;15.40;1.00;;;;;;5071438;28;20217;-60
2021/10/31 10:54:45;;;;;;;2.90;2.30;;;15.30;1.00;;;;;;5072178;28;20260;-59
2021/10/31 10:57:14;;;;;;;2.33;2.13;;;15.30;1.00;;;;;;5075399;28;20204;-60
2021/10/31 10:59:41;;;;;;;2.20;2.00;;;15.30;1.00;;;;;;5074940;28;20670;-58
2021/10/31 11:02:09;;;;;;;1.80;1.70;;;15.40;1.00;;;;;;5075094;28;20660;-57
2021/10/31 11:04:37;;;;;;;3.10;2.03;;;15.40;1.00;;;;;;5074521;28;20639;-54
2021/10/31 11:07:04;;;;;;;3.10;2.27;;;15.40;1.00;;;;;;5075166;28;20255;-57
2021/10/31 11:09:40;;;;;;;2.47;2.00;;;15.40;1.00;;;;;;5074976;28;20205;-58
2021/10/31 11:12:29;;;;;;;4.00;2.33;;;15.50;1.00;;;;;;5074716;28;20225;-57
2021/10/31 11:14:58;;;;;;;4.83;2.13;;;15.40;1.00;;;;;;5074632;28;20286;-61
2021/10/31 11:17:25;;;;;;;2.67;2.03;;;15.50;1.00;;;;;;5074830;28;20227;-61
2021/10/31 11:19:53;;;;;;;3.70;2.20;;;15.60;1.00;;;;;;5075052;28;20212;-62
2021/10/31 11:22:22;;;;;;;2.80;1.83;;;15.70;1.00;;;;;;5074395;28;20286;-61
2021/10/31 11:24:50;;;;;;;3.97;1.70;;;15.80;1.00;;;;;;5074031;28;20216;-61
2021/10/31 11:27:19;;;;;;;2.00;1.80;;;15.90;1.00;;;;;;5075048;28;20258;-61
2021/10/31 11:29:48;;;;;;;3.17;2.60;;;15.80;1.00;;;;;;5074607;28;20208;-55
2021/10/31 11:32:16;;;;;;;2.57;2.10;;;15.80;1.00;;;;;;5072258;28;20221;-55
2021/10/31 11:34:46;;;;;;;4.83;2.50;;;15.70;1.00;;;;;;5074281;28;20208;-59
2021/10/31 11:37:15;;;;;;;2.57;1.93;;;15.80;1.00;;;;;;5074196;28;20212;-58
2021/10/31 11:39:43;;;;;;;3.43;2.20;;;15.80;1.00;;;;;;5074671;28;20208;-58
2021/10/31 11:42:11;;;;;;;3.43;1.90;;;15.80;1.00;;;;;;5074467;28;20224;-61
2021/10/31 11:45:03;;;;;;;3.13;2.03;;;15.80;1.00;;;;;;5073773;28;20216;-61
2021/10/31 11:47:32;;;;;;;4.00;2.10;;;15.80;1.00;;;;;;5074235;28;20209;-62
2021/10/31 11:50:11;;;;;;;2.40;2.00;;;15.90;1.00;;;;;;5074760;28;20673;-61
2021/10/31 11:52:53;;;;;;;2.00;1.80;;;16.10;1.00;;;;;;5073947;28;20225;-61
2021/10/31 11:55:46;;;;;;;2.93;2.10;;;16.10;1.00;;;;;;5074076;28;20201;-62
2021/10/31 11:58:42;;;;;;;3.27;2.00;;;16.10;1.00;;;;;;5074165;28;20246;-61
2021/10/31 12:01:19;;;;;;;3.83;1.70;;;16.10;1.00;;;;;;5073621;28;20563;-62
2021/10/31 12:03:48;;;;;;;3.20;1.80;;;16.10;1.00;;;;;;5073748;28;20224;-59
2021/10/31 12:06:43;;;;;;;3.80;1.90;;;16.00;1.00;;;;;;5072690;28;20227;-57
2021/10/31 12:09:30;;;;;;;1.87;1.60;;;16.00;1.00;;;;;;5073940;28;20209;-59
2021/10/31 12:12:19;;;;;;;3.63;1.77;;;16.20;1.00;;;;;;5073901;28;20746;-57
2021/10/31 12:14:57;;;;;;;4.17;2.03;;;16.20;1.00;;;;;;5071435;28;20208;-60
2021/10/31 12:17:27;;;;;;;1.50;1.40;;;16.30;1.00;;;;;;5072696;28;20204;-58
2021/10/31 12:19:56;;;;;;;2.53;2.07;;;16.20;1.00;;;;;;5074072;28;20209;-57
2021/10/31 12:22:34;;;;;;;3.90;1.90;;;16.10;1.00;;;;;;5073461;28;20233;-56
2021/10/31 12:25:03;;;;;;;2.77;1.80;;;16.10;1.00;;;;;;5072886;28;20205;-59
2021/10/31 12:27:41;;;;;;;2.40;1.80;;;16.20;1.00;;;;;;5073685;28;20209;-61
2021/10/31 12:30:39;;;;;;;2.67;1.90;;;16.20;1.00;;;;;;5073665;28;20258;-61
2021/10/31 12:33:10;;;;;;;2.20;1.80;;;16.20;1.00;;;;;;5069668;28;20590;-60
2021/10/31 12:35:39;;;;;;;2.83;1.63;;;16.20;1.00;;;;;;5073041;28;20209;-60
2021/10/31 12:38:30;;;;;;;3.83;1.80;;;16.30;1.00;;;;;;5073688;28;20205;-60
2021/10/31 12:41:22;;;;;;;3.10;1.70;;;16.40;1.00;;;;;;5073631;28;20625;-59
2021/10/31 12:43:51;;;;;;;2.10;1.70;;;16.40;1.00;;;;;;5072801;28;20220;-59
2021/10/31 12:46:22;;;;;;;2.60;1.70;;;16.40;1.00;;;;;;5073069;28;20311;-59
2021/10/31 12:48:51;;;;;;;2.03;1.80;;;16.40;1.00;;;;;;5073510;28;20212;-60
2021/10/31 12:51:46;;;;;;;3.93;1.90;;;16.30;1.00;;;;;;5072976;28;20208;-60
2021/10/31 12:54:20;;;;;;;3.10;1.87;;;16.30;1.00;;;;;;5070410;28;20213;-59
2021/10/31 12:56:48;;;;;;;3.80;1.67;;;16.30;1.00;;;;;;5072919;28;20208;-59